createdAt,value
2019-04-29T00:01:47.604Z,8.80
2019-04-29T00:04:16.357Z,8.80
2019-04-29T00:06:45.223Z,8.70
2019-04-29T00:09:16.234Z,8.70
2019-04-29T00:11:45.311Z,8.80
2019-04-29T00:14:14.042Z,8.70
2019-04-29T00:16:51.935Z,8.70
2019-04-29T00:19:46.651Z,8.60
2019-04-29T00:22:15.469Z,8.60
2019-04-29T00:24:44.626Z,8.50
2019-04-29T00:27:13.631Z,8.50
2019-04-29T00:29:42.442Z,8.50
2019-04-29T00:32:11.773Z,8.50
2019-04-29T00:34:40.498Z,8.50
2019-04-29T00:37:43.570Z,8.50
2019-04-29T00:40:47.045Z,8.50
2019-04-29T00:43:40.769Z,8.50
2019-04-29T00:46:11.263Z,8.40
2019-04-29T00:48:39.998Z,8.50
2019-04-29T00:51:08.862Z,8.50
2019-04-29T00:53:38.025Z,8.50
2019-04-29T00:56:06.980Z,8.50
2019-04-29T00:58:36.114Z,8.50
2019-04-29T01:01:09.516Z,8.50
2019-04-29T01:03:41.022Z,8.50
2019-04-29T01:06:08.873Z,8.50
2019-04-29T01:08:37.776Z,8.50
2019-04-29T01:11:06.615Z,8.60
2019-04-29T01:13:35.404Z,8.50
2019-04-29T01:16:04.192Z,8.50
2019-04-29T01:18:33.167Z,8.50
2019-04-29T01:21:01.895Z,8.50
2019-04-29T01:23:30.722Z,8.50
2019-04-29T01:26:03.483Z,8.60
2019-04-29T01:28:38.348Z,8.60
2019-04-29T01:31:12.103Z,8.60
2019-04-29T01:33:40.859Z,8.60
2019-04-29T01:36:40.901Z,8.60
2019-04-29T01:39:12.011Z,8.60
2019-04-29T01:41:52.851Z,8.60
2019-04-29T01:44:22.052Z,8.60
2019-04-29T01:46:50.872Z,8.60
2019-04-29T01:49:19.993Z,8.60
2019-04-29T01:51:48.848Z,8.50
2019-04-29T01:54:18.012Z,8.60
2019-04-29T01:56:47.016Z,8.70
2019-04-29T01:59:15.863Z,8.70
2019-04-29T02:01:44.622Z,8.70
2019-04-29T02:04:13.454Z,8.80
2019-04-29T02:06:42.747Z,8.80
2019-04-29T02:09:16.875Z,8.80
2019-04-29T02:11:45.583Z,8.90
2019-04-29T02:14:14.435Z,8.90
2019-04-29T02:16:43.155Z,8.90
2019-04-29T02:19:11.942Z,8.90
2019-04-29T02:21:43.648Z,8.90
2019-04-29T02:24:16.231Z,8.90
2019-04-29T02:26:45.009Z,8.90
2019-04-29T02:29:13.907Z,8.80
2019-04-29T02:31:43.619Z,8.80
2019-04-29T02:34:12.834Z,8.80
2019-04-29T02:36:41.566Z,8.80
2019-04-29T02:39:21.386Z,8.80
2019-04-29T02:42:12.540Z,8.70
2019-04-29T02:44:41.510Z,8.70
2019-04-29T02:47:10.601Z,8.70
2019-04-29T02:49:39.346Z,8.70
2019-04-29T02:52:08.181Z,8.70
2019-04-29T02:54:36.935Z,8.70
2019-04-29T02:57:28.031Z,8.70
2019-04-29T03:00:02.022Z,8.70
2019-04-29T03:02:43.236Z,8.70
2019-04-29T03:05:15.099Z,8.70
2019-04-29T03:07:44.188Z,8.70
2019-04-29T03:10:13.554Z,8.70
2019-04-29T03:12:42.484Z,8.70
2019-04-29T03:15:11.841Z,8.70
2019-04-29T03:17:41.015Z,8.70
2019-04-29T03:20:29.149Z,8.80
2019-04-29T03:23:18.187Z,8.70
2019-04-29T03:25:48.536Z,8.60
2019-04-29T03:28:17.362Z,8.80
2019-04-29T03:30:46.581Z,8.80
2019-04-29T03:33:15.417Z,8.70
2019-04-29T03:35:44.235Z,8.70
2019-04-29T03:38:12.984Z,8.80
2019-04-29T03:40:42.328Z,8.80
2019-04-29T03:43:11.176Z,8.80
2019-04-29T03:45:39.932Z,8.90
2019-04-29T03:48:08.666Z,8.90
2019-04-29T03:50:37.879Z,8.80
2019-04-29T03:53:06.725Z,8.80
2019-04-29T03:55:40.005Z,8.80
2019-04-29T03:58:05.982Z,8.90
2019-04-29T04:00:34.848Z,9.00
2019-04-29T04:03:25.720Z,8.90
2019-04-29T04:06:04.228Z,8.90
2019-04-29T04:08:35.684Z,8.80
2019-04-29T04:11:04.944Z,8.80
2019-04-29T04:13:33.912Z,8.90
2019-04-29T04:16:03.798Z,8.90
2019-04-29T04:18:33.852Z,8.90
2019-04-29T04:21:02.627Z,8.80
2019-04-29T04:23:31.593Z,8.80
2019-04-29T04:26:00.415Z,8.80
2019-04-29T04:28:30.612Z,8.80
2019-04-29T04:30:59.467Z,8.80
2019-04-29T04:33:28.254Z,8.90
2019-04-29T04:35:57.121Z,8.90
2019-04-29T04:38:25.948Z,8.90
2019-04-29T04:41:02.464Z,8.90
2019-04-29T04:43:32.042Z,8.90
2019-04-29T04:46:00.914Z,9.00
2019-04-29T04:48:29.721Z,9.00
2019-04-29T04:50:58.534Z,8.90
2019-04-29T04:53:27.554Z,8.90
2019-04-29T04:55:59.355Z,8.90
2019-04-29T04:58:28.489Z,9.00
2019-04-29T05:00:57.330Z,8.90
2019-04-29T05:03:26.187Z,8.90
2019-04-29T05:05:55.092Z,8.90
2019-04-29T05:08:23.919Z,8.90
2019-04-29T05:10:52.780Z,9.00
2019-04-29T05:13:28.140Z,8.90
2019-04-29T05:15:52.003Z,8.80
2019-04-29T05:18:20.745Z,8.80
2019-04-29T05:20:49.547Z,8.90
2019-04-29T05:23:18.321Z,8.90
2019-04-29T05:25:47.148Z,8.90
2019-04-29T05:28:15.963Z,8.90
2019-04-29T05:30:44.764Z,8.90
2019-04-29T05:33:13.599Z,8.90
2019-04-29T05:36:02.010Z,8.80
2019-04-29T05:38:35.549Z,8.70
2019-04-29T05:41:04.352Z,8.70
2019-04-29T05:43:52.211Z,8.80
2019-04-29T05:46:46.127Z,8.80
2019-04-29T05:49:18.171Z,8.80
2019-04-29T05:52:01.978Z,8.80
2019-04-29T05:54:31.747Z,8.60
2019-04-29T05:56:59.402Z,8.50
2019-04-29T05:59:28.180Z,8.50
2019-04-29T06:01:57.636Z,8.40
2019-04-29T06:04:28.637Z,8.40
2019-04-29T06:06:56.849Z,8.40
2019-04-29T06:09:25.715Z,8.30
2019-04-29T06:11:54.419Z,8.30
2019-04-29T06:14:23.205Z,8.40
2019-04-29T06:16:52.899Z,8.40
2019-04-29T06:19:21.955Z,8.40
2019-04-29T06:21:50.793Z,8.50
2019-04-29T06:24:19.654Z,8.40
2019-04-29T06:26:48.580Z,8.30
2019-04-29T06:29:17.671Z,8.40
2019-04-29T06:31:46.457Z,8.40
2019-04-29T06:34:15.656Z,8.30
2019-04-29T06:36:44.608Z,8.30
2019-04-29T06:39:13.779Z,8.40
2019-04-29T06:41:45.421Z,8.40
2019-04-29T06:44:16.574Z,8.30
2019-04-29T06:46:44.009Z,8.30
2019-04-29T06:49:12.942Z,8.20
2019-04-29T06:51:41.760Z,8.20
2019-04-29T06:54:10.876Z,8.20
2019-04-29T06:56:39.996Z,8.20
2019-04-29T06:59:12.216Z,8.20
2019-04-29T07:01:39.815Z,8.20
2019-04-29T07:04:08.702Z,8.30
2019-04-29T07:06:37.503Z,8.30
2019-04-29T07:09:07.219Z,8.30
2019-04-29T07:11:36.955Z,8.40
2019-04-29T07:14:07.128Z,8.40
2019-04-29T07:16:35.939Z,8.40
2019-04-29T07:19:05.028Z,8.30
2019-04-29T07:21:33.801Z,8.30
2019-04-29T07:24:02.900Z,8.40
2019-04-29T07:26:31.909Z,8.40
2019-04-29T07:29:00.736Z,8.50
2019-04-29T07:31:33.212Z,8.40
2019-04-29T07:33:59.966Z,8.50
2019-04-29T07:36:29.054Z,8.40
2019-04-29T07:38:57.952Z,8.40
2019-04-29T07:41:26.728Z,8.40
2019-04-29T07:43:55.795Z,8.40
2019-04-29T07:46:36.283Z,8.40
2019-04-29T07:49:05.725Z,8.40
2019-04-29T07:51:39.427Z,8.40
2019-04-29T07:54:06.017Z,8.40
2019-04-29T07:56:37.929Z,8.40
2019-04-29T07:59:05.483Z,8.40
2019-04-29T08:01:34.311Z,8.40
2019-04-29T08:04:03.436Z,8.40
2019-04-29T08:06:33.268Z,8.40
2019-04-29T08:09:07.410Z,8.40
2019-04-29T08:11:32.712Z,8.50
2019-04-29T08:14:02.428Z,8.40
2019-04-29T08:16:31.258Z,8.30
2019-04-29T08:19:00.020Z,8.10
2019-04-29T08:21:29.014Z,8.10
2019-04-29T08:23:58.170Z,8.20
2019-04-29T08:26:27.035Z,8.10
2019-04-29T08:29:00.411Z,8.10
2019-04-29T08:31:26.644Z,8.10
2019-04-29T08:33:55.378Z,8.10
2019-04-29T08:36:24.609Z,8.10
2019-04-29T08:39:08.839Z,8.10
2019-04-29T08:41:36.681Z,8.30
2019-04-29T08:44:16.330Z,8.40
2019-04-29T08:46:51.768Z,8.40
2019-04-29T08:49:20.068Z,8.40
2019-04-29T08:51:48.991Z,8.60
2019-04-29T08:54:20.025Z,8.60
2019-04-29T08:57:02.312Z,8.60
2019-04-29T08:59:20.688Z,8.60
2019-04-29T09:01:49.720Z,8.60
2019-04-29T09:04:18.454Z,8.60
2019-04-29T09:06:47.319Z,8.60
2019-04-29T09:11:48.022Z,8.60
2019-04-29T09:13:54.520Z,8.60
2019-04-29T09:14:17.579Z,8.70
2019-04-29T09:16:46.472Z,8.60
2019-04-29T09:19:15.340Z,8.50
2019-04-29T09:21:45.999Z,8.50
2019-04-29T09:24:15.374Z,8.60
2019-04-29T09:26:49.446Z,8.60
2019-04-29T09:29:30.466Z,8.60
2019-04-29T09:31:59.212Z,8.50
2019-04-29T09:34:28.032Z,8.50
2019-04-29T09:36:56.968Z,8.50
2019-04-29T09:39:26.011Z,8.50
2019-04-29T09:42:03.483Z,8.50
2019-04-29T09:44:49.212Z,8.50
2019-04-29T09:47:18.210Z,8.40
2019-04-29T09:49:47.422Z,8.40
2019-04-29T09:52:16.330Z,8.40
2019-04-29T09:54:45.164Z,8.40
2019-04-29T09:57:13.973Z,8.40
2019-04-29T09:59:46.972Z,8.40
2019-04-29T10:02:33.487Z,8.40
2019-04-29T10:05:14.096Z,8.40
2019-04-29T10:07:43.027Z,8.50
2019-04-29T10:10:12.197Z,8.50
2019-04-29T10:12:40.961Z,8.50
2019-04-29T10:15:11.716Z,8.50
2019-04-29T10:17:50.963Z,8.50
2019-04-29T10:20:24.452Z,8.40
2019-04-29T10:22:53.815Z,8.40
2019-04-29T10:25:23.699Z,8.50
2019-04-29T10:27:52.526Z,8.50
2019-04-29T10:30:26.797Z,8.50
2019-04-29T10:32:54.058Z,8.50
2019-04-29T10:35:23.023Z,8.40
2019-04-29T10:37:51.826Z,8.50
2019-04-29T10:40:42.920Z,8.50
2019-04-29T10:43:25.950Z,8.60
2019-04-29T10:46:12.631Z,8.50
2019-04-29T10:48:52.403Z,8.50
2019-04-29T10:51:27.314Z,8.60
2019-04-29T10:53:53.964Z,8.70
2019-04-29T10:56:29.117Z,8.70
2019-04-29T10:58:58.747Z,8.80
2019-04-29T11:02:21.554Z,8.80
2019-04-29T11:04:52.325Z,8.80
2019-04-29T11:07:46.686Z,8.90
2019-04-29T11:10:25.562Z,8.90
2019-04-29T11:12:55.147Z,8.90
2019-04-29T11:15:32.123Z,8.90
2019-04-29T11:18:01.702Z,8.90
2019-04-29T11:20:29.715Z,8.90
2019-04-29T11:23:17.864Z,8.90
2019-04-29T11:26:02.228Z,9.00
2019-04-29T11:28:33.465Z,8.90
2019-04-29T11:31:02.392Z,9.00
2019-04-29T11:33:40.171Z,9.00
2019-04-29T11:36:10.109Z,9.00
2019-04-29T11:38:40.251Z,9.00
2019-04-29T11:41:12.250Z,9.00
2019-04-29T11:43:39.875Z,9.00
2019-04-29T11:46:09.867Z,9.10
2019-04-29T11:48:39.215Z,9.10
2019-04-29T11:51:23.894Z,9.20
2019-04-29T11:53:52.810Z,9.30
2019-04-29T11:56:21.714Z,9.30
2019-04-29T11:59:00.734Z,9.30
2019-04-29T12:01:51.738Z,9.30
2019-04-29T12:04:28.678Z,9.30
2019-04-29T12:06:58.750Z,9.30
2019-04-29T12:09:30.418Z,9.40
2019-04-29T12:11:58.085Z,9.40
2019-04-29T12:14:39.752Z,9.40
2019-04-29T12:17:26.765Z,9.30
2019-04-29T12:19:57.826Z,9.30
2019-04-29T12:22:30.680Z,9.30
2019-04-29T12:24:57.705Z,9.20
2019-04-29T12:27:29.108Z,9.30
2019-04-29T12:29:59.508Z,9.30
2019-04-29T12:32:38.281Z,9.30
2019-04-29T12:35:30.258Z,9.30
2019-04-29T12:38:19.248Z,9.30
2019-04-29T12:41:20.485Z,9.30
2019-04-29T12:43:59.154Z,9.30
2019-04-29T12:46:34.050Z,9.30
2019-04-29T12:49:03.458Z,9.30
2019-04-29T12:51:33.483Z,9.40
2019-04-29T12:54:02.408Z,9.40
2019-04-29T12:56:43.078Z,9.40
2019-04-29T12:59:09.792Z,9.30
2019-04-29T13:01:59.255Z,9.30
2019-04-29T13:04:51.536Z,9.40
2019-04-29T13:07:57.854Z,9.30
2019-04-29T13:10:33.042Z,9.40
2019-04-29T13:13:01.801Z,9.40
2019-04-29T13:15:48.455Z,9.50
2019-04-29T13:18:23.675Z,9.50
2019-04-29T13:20:53.728Z,9.50
2019-04-29T13:23:33.159Z,9.50
2019-04-29T13:25:55.880Z,9.60
2019-04-29T13:28:30.446Z,9.60
2019-04-29T13:30:56.806Z,9.60
2019-04-29T13:33:25.822Z,9.60
2019-04-29T13:35:54.620Z,9.50
2019-04-29T13:38:23.591Z,9.50
2019-04-29T13:41:11.374Z,9.60
2019-04-29T13:43:25.941Z,9.70
2019-04-29T13:46:05.249Z,9.80
2019-04-29T13:48:55.989Z,9.90
2019-04-29T13:51:35.148Z,9.90
2019-04-29T13:53:59.795Z,9.80
2019-04-29T13:56:39.407Z,9.80
2019-04-29T13:59:01.178Z,9.80
2019-04-29T14:01:59.537Z,9.70
2019-04-29T14:04:24.903Z,9.70
2019-04-29T14:06:57.115Z,9.70
2019-04-29T14:09:22.679Z,9.60
2019-04-29T14:12:01.425Z,9.70
2019-04-29T14:14:22.980Z,9.70
2019-04-29T14:18:53.558Z,9.70
2019-04-29T14:19:41.218Z,9.70
2019-04-29T14:21:54.530Z,9.80
2019-04-29T14:24:23.471Z,9.70
2019-04-29T14:26:52.370Z,9.70
2019-04-29T14:29:23.030Z,9.70
2019-04-29T14:31:59.204Z,9.70
2019-04-29T14:34:37.248Z,9.70
2019-04-29T14:37:25.403Z,9.80
2019-04-29T14:39:37.865Z,9.80
2019-04-29T14:42:15.655Z,9.80
2019-04-29T14:44:55.605Z,9.80
2019-04-29T14:47:47.635Z,9.90
2019-04-29T14:50:20.616Z,9.80
2019-04-29T14:52:49.466Z,9.80
2019-04-29T14:55:20.086Z,9.90
2019-04-29T14:57:49.252Z,10.10
2019-04-29T15:00:37.208Z,10.10
2019-04-29T15:03:06.077Z,10.10
2019-04-29T15:05:34.954Z,10.10
2019-04-29T15:08:03.907Z,10.10
2019-04-29T15:10:36.754Z,10.20
2019-04-29T15:13:20.785Z,10.30
2019-04-29T15:16:13.991Z,10.30
2019-04-29T15:19:03.427Z,10.30
2019-04-29T15:21:55.261Z,10.20
2019-04-29T15:24:27.464Z,10.30
2019-04-29T15:26:54.891Z,10.30
2019-04-29T15:29:23.630Z,10.20
2019-04-29T15:31:52.463Z,10.20
2019-04-29T15:34:21.211Z,10.20
2019-04-29T15:36:50.099Z,10.10
2019-04-29T15:39:19.464Z,10.20
2019-04-29T15:41:48.941Z,10.20
2019-04-29T15:44:20.019Z,10.20
2019-04-29T15:46:48.654Z,10.20
2019-04-29T15:49:20.201Z,10.20
2019-04-29T15:51:49.297Z,10.20
2019-04-29T15:54:18.696Z,10.20
2019-04-29T15:56:47.616Z,10.20
2019-04-29T15:59:16.585Z,10.20
2019-04-29T16:01:45.591Z,10.20
2019-04-29T16:04:20.997Z,10.20
2019-04-29T16:07:04.686Z,10.20
2019-04-29T16:09:51.321Z,10.20
2019-04-29T16:12:16.072Z,10.20
2019-04-29T16:14:48.862Z,10.20
2019-04-29T16:17:20.264Z,10.20
2019-04-29T16:19:47.261Z,10.20
2019-04-29T16:22:20.022Z,10.20
2019-04-29T16:24:46.879Z,10.20
2019-04-29T16:27:15.772Z,10.20
2019-04-29T16:29:46.166Z,10.20
2019-04-29T16:32:24.119Z,10.20
2019-04-29T16:34:52.877Z,10.20
2019-04-29T16:37:24.954Z,10.20
2019-04-29T16:39:59.485Z,10.20
2019-04-29T16:42:35.170Z,10.30
2019-04-29T16:45:11.309Z,10.30
2019-04-29T16:47:35.351Z,10.30
2019-04-29T16:50:04.973Z,10.40
2019-04-29T16:52:35.012Z,10.30
2019-04-29T16:55:05.857Z,10.30
2019-04-29T16:57:34.764Z,10.30
2019-04-29T17:00:06.360Z,10.40
2019-04-29T17:02:35.226Z,10.40
2019-04-29T17:05:04.661Z,10.40
2019-04-29T17:07:33.398Z,10.40
2019-04-29T17:10:20.731Z,10.40
2019-04-29T17:12:51.117Z,10.40
2019-04-29T17:15:25.087Z,10.50
2019-04-29T17:17:50.773Z,10.50
2019-04-29T17:20:19.859Z,10.50
2019-04-29T17:22:48.808Z,10.50
2019-04-29T17:25:18.128Z,10.50
2019-04-29T17:27:54.106Z,10.60
2019-04-29T17:30:58.478Z,10.60
2019-04-29T17:33:35.212Z,10.60
2019-04-29T17:36:04.772Z,10.60
2019-04-29T17:38:33.612Z,10.80
2019-04-29T17:41:02.416Z,10.80
2019-04-29T17:43:45.185Z,10.80
2019-04-29T17:46:29.056Z,10.80
2019-04-29T17:49:10.956Z,10.80
2019-04-29T17:51:41.075Z,10.80
2019-04-29T17:54:11.825Z,10.80
2019-04-29T17:57:08.645Z,10.80
2019-04-29T17:59:35.801Z,10.70
2019-04-29T18:02:23.265Z,10.70
2019-04-29T18:05:05.670Z,10.80
2019-04-29T18:07:40.532Z,10.80
2019-04-29T18:10:29.297Z,10.80
2019-04-29T18:12:56.758Z,10.70
2019-04-29T18:15:27.663Z,10.60
2019-04-29T18:18:00.348Z,10.60
2019-04-29T18:20:38.311Z,10.60
2019-04-29T18:23:24.964Z,10.60
2019-04-29T18:26:06.763Z,10.70
2019-04-29T18:28:37.442Z,10.70
2019-04-29T18:31:08.071Z,10.70
2019-04-29T18:33:37.411Z,10.80
2019-04-29T18:36:07.086Z,10.80
2019-04-29T18:38:36.545Z,10.80
2019-04-29T18:41:05.727Z,10.70
2019-04-29T18:43:35.406Z,10.70
2019-04-29T18:46:06.081Z,10.70
2019-04-29T18:48:35.395Z,10.60
2019-04-29T18:51:05.789Z,10.60
2019-04-29T18:53:35.481Z,10.60
2019-04-29T18:56:05.282Z,10.70
2019-04-29T18:58:35.606Z,10.70
2019-04-29T19:01:05.317Z,10.60
2019-04-29T19:03:55.621Z,10.60
2019-04-29T19:06:25.051Z,10.60
2019-04-29T19:08:56.582Z,10.60
2019-04-29T19:11:32.165Z,10.60
2019-04-29T19:13:55.886Z,10.60
2019-04-29T19:16:27.343Z,10.60
2019-04-29T19:18:57.728Z,10.60
2019-04-29T19:21:30.467Z,10.60
2019-04-29T19:24:00.472Z,10.60
2019-04-29T19:26:27.649Z,10.60
2019-04-29T19:28:56.911Z,10.50
2019-04-29T19:31:25.696Z,10.60
2019-04-29T19:33:57.207Z,10.60
2019-04-29T19:36:25.746Z,10.60
2019-04-29T19:38:55.140Z,10.60
2019-04-29T19:41:25.629Z,10.70
2019-04-29T19:43:55.285Z,10.60
2019-04-29T19:46:36.600Z,10.70
2019-04-29T19:48:58.268Z,10.70
2019-04-29T19:51:26.095Z,10.70
2019-04-29T19:53:55.282Z,10.80
2019-04-29T19:56:26.499Z,10.70
2019-04-29T19:58:57.226Z,10.70
2019-04-29T20:01:31.097Z,10.80
2019-04-29T20:04:19.674Z,10.80
2019-04-29T20:06:47.955Z,10.80
2019-04-29T20:09:21.395Z,10.80
2019-04-29T20:11:47.462Z,10.80
2019-04-29T20:14:20.600Z,10.90
2019-04-29T20:17:17.592Z,10.90
2019-04-29T20:20:02.090Z,10.90
2019-04-29T20:22:31.207Z,10.90
2019-04-29T20:25:00.220Z,10.90
2019-04-29T20:27:30.907Z,10.90
2019-04-29T20:30:00.033Z,10.90
2019-04-29T20:32:31.876Z,10.90
2019-04-29T20:35:07.082Z,10.90
2019-04-29T20:37:30.119Z,11.00
2019-04-29T20:40:00.749Z,10.90
2019-04-29T20:42:29.815Z,10.90
2019-04-29T20:44:59.213Z,11.00
2019-04-29T20:47:37.480Z,11.00
2019-04-29T20:49:58.849Z,10.90
2019-04-29T20:52:46.466Z,10.90
2019-04-29T20:55:16.085Z,10.90
2019-04-29T20:57:47.978Z,10.90
2019-04-29T21:00:20.141Z,10.80
2019-04-29T21:02:48.873Z,10.80
2019-04-29T21:05:23.155Z,10.80
2019-04-29T21:07:49.253Z,10.80
2019-04-29T21:10:18.599Z,10.80
2019-04-29T21:12:55.815Z,10.80
2019-04-29T21:15:32.838Z,10.90
2019-04-29T21:18:01.626Z,10.90
2019-04-29T21:20:30.426Z,10.90
2019-04-29T21:23:00.944Z,10.90
2019-04-29T21:25:30.693Z,10.90
2019-04-29T21:28:02.272Z,11.00
2019-04-29T21:30:35.566Z,11.00
2019-04-29T21:33:01.083Z,11.00
2019-04-29T21:35:57.880Z,10.90
2019-04-29T21:39:01.413Z,10.90
2019-04-29T21:41:32.279Z,10.90
2019-04-29T21:44:01.700Z,10.90
2019-04-29T21:46:30.497Z,10.90
2019-04-29T21:48:59.427Z,10.80
2019-04-29T21:51:28.170Z,10.80
2019-04-29T21:53:57.110Z,10.80
2019-04-29T21:56:25.943Z,10.80
2019-04-29T21:58:54.966Z,10.80
2019-04-29T22:01:25.166Z,10.70
2019-04-29T22:03:57.659Z,10.70
2019-04-29T22:06:29.118Z,10.70
2019-04-29T22:09:01.134Z,10.60
2019-04-29T22:11:26.390Z,10.60
2019-04-29T22:13:55.568Z,10.60
2019-04-29T22:16:25.159Z,10.50
2019-04-29T22:18:55.390Z,10.50
2019-04-29T22:21:25.901Z,10.40
2019-04-29T22:23:55.245Z,10.40
2019-04-29T22:26:26.775Z,10.30
2019-04-29T22:29:01.649Z,10.30
2019-04-29T22:31:26.850Z,10.30
2019-04-29T22:33:57.445Z,10.20
2019-04-29T22:36:26.676Z,10.20
2019-04-29T22:38:55.889Z,10.10
2019-04-29T22:41:48.695Z,10.00
2019-04-29T22:44:21.744Z,10.00
2019-04-29T22:46:47.262Z,9.90
2019-04-29T22:49:19.774Z,9.80
2019-04-29T22:51:49.778Z,9.80
2019-04-29T22:54:17.657Z,9.70
2019-04-29T22:56:52.134Z,9.70
2019-04-29T22:59:19.097Z,9.70
2019-04-29T23:01:50.609Z,9.70
2019-04-29T23:04:19.482Z,9.70
2019-04-29T23:06:49.408Z,9.60
2019-04-29T23:09:18.273Z,9.50
2019-04-29T23:11:47.489Z,9.50
2019-04-29T23:14:16.638Z,9.50
2019-04-29T23:16:47.473Z,9.40
2019-04-29T23:19:18.179Z,9.30
2019-04-29T23:22:15.375Z,9.20
2019-04-29T23:25:07.288Z,9.20
2019-04-29T23:27:36.287Z,9.00
2019-04-29T23:30:06.278Z,8.90
2019-04-29T23:32:35.247Z,8.90
2019-04-29T23:35:08.292Z,8.80
2019-04-29T23:37:35.882Z,8.70
2019-04-29T23:40:06.388Z,8.60
2019-04-29T23:42:35.103Z,8.50
2019-04-29T23:45:05.304Z,8.40
2019-04-29T23:47:35.759Z,8.30
2019-04-29T23:50:05.135Z,8.20
2019-04-29T23:52:35.904Z,8.20
2019-04-29T23:55:07.697Z,8.00
2019-04-29T23:58:02.896Z,7.90
